sensor_id;sensor_type;location;lat;lon;timestamp;pressure;altitude;pressure_sealevel;temperature;humidity
19114;BME280;9689;51.052;13.772;2023-02-18T00:04:35;100562.59;;;9.37;72.80
19114;BME280;9689;51.052;13.772;2023-02-18T00:09:37;100565.22;;;9.39;72.54
19114;BME280;9689;51.052;13.772;2023-02-18T00:14:38;100565.28;;;9.32;73.31
19114;BME280;9689;51.052;13.772;2023-02-18T00:19:40;100558.34;;;9.33;73.09
19114;BME280;9689;51.052;13.772;2023-02-18T00:24:40;100562.78;;;9.23;73.14
19114;BME280;9689;51.052;13.772;2023-02-18T00:29:41;100555.03;;;9.17;73.28
19114;BME280;9689;51.052;13.772;2023-02-18T00:34:43;100554.16;;;9.18;72.96
19114;BME280;9689;51.052;13.772;2023-02-18T00:39:44;100557.59;;;9.20;72.72
19114;BME280;9689;51.052;13.772;2023-02-18T00:44:45;100569.69;;;9.24;71.65
19114;BME280;9689;51.052;13.772;2023-02-18T00:49:47;100557.59;;;9.22;72.40
19114;BME280;9689;51.052;13.772;2023-02-18T00:54:48;100561.00;;;9.25;72.40
19114;BME280;9689;51.052;13.772;2023-02-18T00:59:48;100557.59;;;9.19;72.05
19114;BME280;9689;51.052;13.772;2023-02-18T01:04:51;100566.25;;;9.19;71.88
19114;BME280;9689;51.052;13.772;2023-02-18T01:09:52;100559.44;;;9.09;72.03
19114;BME280;9689;51.052;13.772;2023-02-18T01:14:53;100568.06;;;9.14;71.78
19114;BME280;9689;51.052;13.772;2023-02-18T01:19:55;100571.63;;;9.05;71.67
19114;BME280;9689;51.052;13.772;2023-02-18T01:24:55;100575.03;;;9.11;70.63
19114;BME280;9689;51.052;13.772;2023-02-18T01:29:57;100574.19;;;9.09;70.62
19114;BME280;9689;51.052;13.772;2023-02-18T01:35:00;100564.78;;;8.95;70.47
19114;BME280;9689;51.052;13.772;2023-02-18T01:40:02;100555.31;;;8.85;70.76
19114;BME280;9689;51.052;13.772;2023-02-18T01:50:55;100560.63;;;8.73;70.73
19114;BME280;9689;51.052;13.772;2023-02-18T01:55:57;100560.75;;;8.62;71.20
19114;BME280;9689;51.052;13.772;2023-02-18T02:00:59;100565.91;;;8.64;71.21
19114;BME280;9689;51.052;13.772;2023-02-18T02:06:01;100559.03;;;8.58;71.94
19114;BME280;9689;51.052;13.772;2023-02-18T02:11:09;100565.06;;;8.59;71.80
19114;BME280;9689;51.052;13.772;2023-02-18T02:16:17;100562.53;;;8.51;72.53
19114;BME280;9689;51.052;13.772;2023-02-18T02:21:46;100578.97;;;8.56;72.33
19114;BME280;9689;51.052;13.772;2023-02-18T02:27:19;100574.59;;;8.61;71.93
19114;BME280;9689;51.052;13.772;2023-02-18T02:32:35;100572.06;;;8.52;72.43
19114;BME280;9689;51.052;13.772;2023-02-18T02:37:49;100557.47;;;8.37;72.97
19114;BME280;9689;51.052;13.772;2023-02-18T02:43:05;100577.31;;;8.41;72.07
19114;BME280;9689;51.052;13.772;2023-02-18T02:48:14;100575.53;;;8.51;71.83
19114;BME280;9689;51.052;13.772;2023-02-18T02:53:22;100572.88;;;8.57;70.96
19114;BME280;9689;51.052;13.772;2023-02-18T02:58:24;100567.59;;;8.68;70.09
19114;BME280;9689;51.052;13.772;2023-02-18T03:03:42;100566.69;;;8.73;68.93
19114;BME280;9689;51.052;13.772;2023-02-18T03:08:55;100575.28;;;8.86;67.67
19114;BME280;9689;51.052;13.772;2023-02-18T03:14:04;100578.69;;;8.90;66.03
19114;BME280;9689;51.052;13.772;2023-02-18T03:19:18;100572.59;;;8.92;65.04
19114;BME280;9689;51.052;13.772;2023-02-18T03:24:25;100573.44;;;8.94;64.17
19114;BME280;9689;51.052;13.772;2023-02-18T03:29:28;100574.34;;;8.92;63.89
19114;BME280;9689;51.052;13.772;2023-02-18T03:34:31;100563.06;;;8.91;63.55
19114;BME280;9689;51.052;13.772;2023-02-18T03:39:36;100556.19;;;8.86;64.27
19114;BME280;9689;51.052;13.772;2023-02-18T03:44:38;100570.94;;;8.87;64.53
19114;BME280;9689;51.052;13.772;2023-02-18T03:49:39;100563.16;;;8.82;64.63
19114;BME280;9689;51.052;13.772;2023-02-18T03:54:41;100568.34;;;8.82;65.58
19114;BME280;9689;51.052;13.772;2023-02-18T03:59:42;100563.19;;;8.79;65.65
19114;BME280;9689;51.052;13.772;2023-02-18T04:04:43;100568.44;;;8.73;66.14
19114;BME280;9689;51.052;13.772;2023-02-18T04:09:45;100571.94;;;8.69;66.53
19114;BME280;9689;51.052;13.772;2023-02-18T04:14:46;100581.44;;;8.71;66.54
19114;BME280;9689;51.052;13.772;2023-02-18T04:19:47;100580.59;;;8.66;67.09
19114;BME280;9689;51.052;13.772;2023-02-18T04:24:49;100578.00;;;8.68;67.39
19114;BME280;9689;51.052;13.772;2023-02-18T04:29:49;100571.09;;;8.65;67.73
19114;BME280;9689;51.052;13.772;2023-02-18T04:34:50;100579.81;;;8.61;68.15
19114;BME280;9689;51.052;13.772;2023-02-18T04:39:52;100565.06;;;8.62;68.31
19114;BME280;9689;51.052;13.772;2023-02-18T04:44:53;100548.66;;;8.57;69.37
19114;BME280;9689;51.052;13.772;2023-02-18T04:49:53;100567.69;;;8.60;69.55
19114;BME280;9689;51.052;13.772;2023-02-18T04:54:56;100567.63;;;8.65;69.64
19114;BME280;9689;51.052;13.772;2023-02-18T04:59:56;100562.47;;;8.62;70.34
19114;BME280;9689;51.052;13.772;2023-02-18T05:04:57;100566.78;;;8.64;70.44
19114;BME280;9689;51.052;13.772;2023-02-18T05:09:59;100565.03;;;8.65;70.67
19114;BME280;9689;51.052;13.772;2023-02-18T05:15:00;100566.75;;;8.69;70.12
19114;BME280;9689;51.052;13.772;2023-02-18T05:20:01;100564.16;;;8.69;70.23
19114;BME280;9689;51.052;13.772;2023-02-18T05:25:04;100549.41;;;8.71;70.15
19114;BME280;9689;51.052;13.772;2023-02-18T05:30:06;100548.53;;;8.70;69.94
19114;BME280;9689;51.052;13.772;2023-02-18T05:35:07;100539.03;;;8.68;70.14
19114;BME280;9689;51.052;13.772;2023-02-18T05:40:11;100539.00;;;8.71;70.20
19114;BME280;9689;51.052;13.772;2023-02-18T05:45:11;100532.97;;;8.66;70.88
19114;BME280;9689;51.052;13.772;2023-02-18T05:50:12;100539.13;;;8.60;71.40
19114;BME280;9689;51.052;13.772;2023-02-18T05:55:14;100524.38;;;8.58;71.95
19114;BME280;9689;51.052;13.772;2023-02-18T06:00:16;100513.25;;;8.46;72.91
19114;BME280;9689;51.052;13.772;2023-02-18T06:05:17;100524.59;;;8.35;73.61
19114;BME280;9689;51.052;13.772;2023-02-18T06:10:19;100519.44;;;8.26;75.02
19114;BME280;9689;51.052;13.772;2023-02-18T06:15:19;100520.34;;;8.14;75.75
19114;BME280;9689;51.052;13.772;2023-02-18T06:20:20;100523.06;;;7.96;77.51
19114;BME280;9689;51.052;13.772;2023-02-18T06:25:22;100518.78;;;7.91;79.21
19114;BME280;9689;51.052;13.772;2023-02-18T06:30:23;100522.28;;;7.83;80.69
19114;BME280;9689;51.052;13.772;2023-02-18T06:35:23;100522.31;;;7.72;82.47
19114;BME280;9689;51.052;13.772;2023-02-18T06:40:25;100523.25;;;7.62;84.07
19114;BME280;9689;51.052;13.772;2023-02-18T06:45:26;100519.78;;;7.60;84.37
19114;BME280;9689;51.052;13.772;2023-02-18T06:50:27;100519.81;;;7.54;85.80
19114;BME280;9689;51.052;13.772;2023-02-18T06:55:29;100512.09;;;7.40;86.92
19114;BME280;9689;51.052;13.772;2023-02-18T07:00:30;100512.94;;;7.47;87.32
19114;BME280;9689;51.052;13.772;2023-02-18T07:05:31;100507.72;;;7.56;87.64
19114;BME280;9689;51.052;13.772;2023-02-18T07:10:33;100505.13;;;7.54;88.22
19114;BME280;9689;51.052;13.772;2023-02-18T07:15:33;100503.41;;;7.53;88.83
19114;BME280;9689;51.052;13.772;2023-02-18T07:20:34;100492.97;;;7.62;88.65
19114;BME280;9689;51.052;13.772;2023-02-18T07:25:36;100480.00;;;7.64;89.01
19114;BME280;9689;51.052;13.772;2023-02-18T07:30:37;100484.38;;;7.57;89.90
19114;BME280;9689;51.052;13.772;2023-02-18T07:35:38;100475.78;;;7.48;90.61
19114;BME280;9689;51.052;13.772;2023-02-18T07:40:40;100461.03;;;7.57;90.79
19114;BME280;9689;51.052;13.772;2023-02-18T07:45:40;100450.63;;;7.65;90.12
19114;BME280;9689;51.052;13.772;2023-02-18T07:50:43;100456.72;;;7.56;91.06
19114;BME280;9689;51.052;13.772;2023-02-18T07:55:45;100432.47;;;7.60;90.99
19114;BME280;9689;51.052;13.772;2023-02-18T08:00:50;100435.91;;;7.62;91.01
19114;BME280;9689;51.052;13.772;2023-02-18T08:05:52;100439.38;;;7.66;90.89
19114;BME280;9689;51.052;13.772;2023-02-18T08:10:56;100424.66;;;7.63;91.09
19114;BME280;9689;51.052;13.772;2023-02-18T08:16:01;100413.44;;;7.68;90.71
19114;BME280;9689;51.052;13.772;2023-02-18T08:21:01;100403.81;;;7.82;90.81
19114;BME280;9689;51.052;13.772;2023-02-18T08:26:04;100391.63;;;7.90;91.01
19114;BME280;9689;51.052;13.772;2023-02-18T08:31:15;100392.41;;;8.03;90.36
19114;BME280;9689;51.052;13.772;2023-02-18T08:36:17;100373.28;;;8.13;90.79
19114;BME280;9689;51.052;13.772;2023-02-18T08:41:19;100378.47;;;8.14;90.31
19114;BME280;9689;51.052;13.772;2023-02-18T08:46:20;100361.13;;;8.16;90.54
19114;BME280;9689;51.052;13.772;2023-02-18T08:51:31;100359.41;;;8.15;90.24
19114;BME280;9689;51.052;13.772;2023-02-18T08:56:34;100358.47;;;8.22;89.70
19114;BME280;9689;51.052;13.772;2023-02-18T09:01:34;100339.41;;;8.28;90.19
19114;BME280;9689;51.052;13.772;2023-02-18T09:06:36;100324.63;;;8.33;89.15
19114;BME280;9689;51.052;13.772;2023-02-18T09:11:39;100316.72;;;8.47;89.75
19114;BME280;9689;51.052;13.772;2023-02-18T09:16:40;100309.84;;;8.44;89.08
19114;BME280;9689;51.052;13.772;2023-02-18T09:21:41;100296.78;;;8.49;89.06
19114;BME280;9689;51.052;13.772;2023-02-18T09:26:43;100289.84;;;8.53;89.37
19114;BME280;9689;51.052;13.772;2023-02-18T09:31:44;100285.53;;;8.52;89.16
19114;BME280;9689;51.052;13.772;2023-02-18T09:36:45;100270.19;;;8.98;89.62
19114;BME280;9689;51.052;13.772;2023-02-18T09:41:49;100262.22;;;9.09;88.78
19114;BME280;9689;51.052;13.772;2023-02-18T09:46:53;100257.56;;;8.70;88.31
19114;BME280;9689;51.052;13.772;2023-02-18T09:51:56;100246.84;;;8.93;87.48
19114;BME280;9689;51.052;13.772;2023-02-18T09:57:04;100239.91;;;8.95;87.33
19114;BME280;9689;51.052;13.772;2023-02-18T10:02:09;100239.09;;;8.90;88.14
19114;BME280;9689;51.052;13.772;2023-02-18T10:07:19;100224.16;;;9.03;87.35
19114;BME280;9689;51.052;13.772;2023-02-18T10:12:29;100217.13;;;9.11;87.46
19114;BME280;9689;51.052;13.772;2023-02-18T10:17:35;100219.91;;;9.53;87.11
19114;BME280;9689;51.052;13.772;2023-02-18T10:22:37;100200.09;;;9.94;85.71
19114;BME280;9689;51.052;13.772;2023-02-18T10:27:39;100198.97;;;10.08;85.32
19114;BME280;9689;51.052;13.772;2023-02-18T10:32:43;100177.81;;;10.25;84.41
19114;BME280;9689;51.052;13.772;2023-02-18T10:37:56;100169.03;;;10.29;83.87
19114;BME280;9689;51.052;13.772;2023-02-18T10:43:09;100169.81;;;10.34;83.89
19114;BME280;9689;51.052;13.772;2023-02-18T10:48:21;100158.38;;;10.40;84.21
19114;BME280;9689;51.052;13.772;2023-02-18T10:53:30;100142.59;;;10.47;84.66
19114;BME280;9689;51.052;13.772;2023-02-18T10:58:36;100129.47;;;10.52;83.96
19114;BME280;9689;51.052;13.772;2023-02-18T11:03:43;100105.69;;;10.66;82.75
19114;BME280;9689;51.052;13.772;2023-02-18T11:08:45;100107.34;;;10.70;82.41
19114;BME280;9689;51.052;13.772;2023-02-18T11:13:53;100085.28;;;10.83;82.90
19114;BME280;9689;51.052;13.772;2023-02-18T11:18:54;100064.09;;;10.97;80.63
19114;BME280;9689;51.052;13.772;2023-02-18T11:23:56;100052.38;;;11.13;80.95
19114;BME280;9689;51.052;13.772;2023-02-18T11:29:00;100039.81;;;11.27;80.18
19114;BME280;9689;51.052;13.772;2023-02-18T11:34:03;100038.44;;;11.47;78.13
19114;BME280;9689;51.052;13.772;2023-02-18T11:39:05;100030.03;;;11.67;76.06
19114;BME280;9689;51.052;13.772;2023-02-18T11:44:20;100029.63;;;11.82;74.32
19114;BME280;9689;51.052;13.772;2023-02-18T11:49:23;100022.28;;;11.95;72.69
19114;BME280;9689;51.052;13.772;2023-02-18T11:54:26;99996.91;;;11.98;72.88
19114;BME280;9689;51.052;13.772;2023-02-18T11:59:32;99988.16;;;12.01;72.86
19114;BME280;9689;51.052;13.772;2023-02-18T12:04:40;99996.03;;;11.99;74.03
19114;BME280;9689;51.052;13.772;2023-02-18T12:09:45;99979.75;;;11.91;74.62
19114;BME280;9689;51.052;13.772;2023-02-18T12:14:48;99991.06;;;11.60;76.54
19114;BME280;9689;51.052;13.772;2023-02-18T12:20:26;100009.59;;;11.51;76.92
19114;BME280;9689;51.052;13.772;2023-02-18T12:25:39;99964.53;;;11.45;76.93
19114;BME280;9689;51.052;13.772;2023-02-18T12:31:01;99990.09;;;11.33;77.93
19114;BME280;9689;51.052;13.772;2023-02-18T12:36:12;99969.97;;;11.39;76.34
19114;BME280;9689;51.052;13.772;2023-02-18T12:41:28;99975.97;;;11.41;76.16
19114;BME280;9689;51.052;13.772;2023-02-18T12:46:45;99991.69;;;11.39;75.69
19114;BME280;9689;51.052;13.772;2023-02-18T12:51:56;99995.50;;;11.26;75.94
19114;BME280;9689;51.052;13.772;2023-02-18T12:57:17;99984.84;;;11.04;78.40
19114;BME280;9689;51.052;13.772;2023-02-18T13:02:40;99990.44;;;10.89;78.04
19114;BME280;9689;51.052;13.772;2023-02-18T13:07:53;99974.47;;;11.01;77.76
19114;BME280;9689;51.052;13.772;2023-02-18T13:13:01;99992.09;;;10.91;76.82
19114;BME280;9689;51.052;13.772;2023-02-18T13:18:09;99979.88;;;10.95;76.85
19114;BME280;9689;51.052;13.772;2023-02-18T13:23:16;99967.34;;;11.08;72.63
19114;BME280;9689;51.052;13.772;2023-02-18T13:28:23;99963.38;;;11.25;71.04
19114;BME280;9689;51.052;13.772;2023-02-18T13:33:34;99988.59;;;11.25;70.58
19114;BME280;9689;51.052;13.772;2023-02-18T13:38:50;99982.78;;;11.15;70.80
19114;BME280;9689;51.052;13.772;2023-02-18T13:43:52;99976.72;;;10.82;71.03
19114;BME280;9689;51.052;13.772;2023-02-18T13:49:04;99989.38;;;10.63;72.99
19114;BME280;9689;51.052;13.772;2023-02-18T13:54:15;99989.66;;;10.51;73.36
19114;BME280;9689;51.052;13.772;2023-02-18T13:59:21;99986.28;;;10.47;73.44
19114;BME280;9689;51.052;13.772;2023-02-18T14:04:52;100006.91;;;10.57;72.36
19114;BME280;9689;51.052;13.772;2023-02-18T14:09:54;99980.56;;;10.67;71.20
19114;BME280;9689;51.052;13.772;2023-02-18T14:14:57;99972.53;;;10.75;69.97
19114;BME280;9689;51.052;13.772;2023-02-18T14:20:32;100035.91;;;10.79;69.78
19114;BME280;9689;51.052;13.772;2023-02-18T14:25:50;100000.13;;;10.84;69.50
19114;BME280;9689;51.052;13.772;2023-02-18T14:30:53;99980.22;;;10.81;69.04
19114;BME280;9689;51.052;13.772;2023-02-18T14:36:02;99982.06;;;10.78;69.07
19114;BME280;9689;51.052;13.772;2023-02-18T14:41:21;99983.97;;;10.71;69.71
19114;BME280;9689;51.052;13.772;2023-02-18T14:46:35;99994.25;;;10.75;69.20
19114;BME280;9689;51.052;13.772;2023-02-18T14:51:41;99979.50;;;10.74;68.25
19114;BME280;9689;51.052;13.772;2023-02-18T14:56:51;99991.59;;;10.79;68.63
19114;BME280;9689;51.052;13.772;2023-02-18T15:01:54;100001.53;;;10.63;70.77
19114;BME280;9689;51.052;13.772;2023-02-18T15:07:02;100024.75;;;10.36;72.18
19114;BME280;9689;51.052;13.772;2023-02-18T15:12:06;100036.03;;;9.97;76.33
19114;BME280;9689;51.052;13.772;2023-02-18T15:17:13;100039.84;;;9.80;77.80
19114;BME280;9689;51.052;13.772;2023-02-18T15:22:17;100032.25;;;9.71;78.28
19114;BME280;9689;51.052;13.772;2023-02-18T15:27:20;100023.78;;;9.61;79.01
19114;BME280;9689;51.052;13.772;2023-02-18T15:32:25;100023.34;;;9.81;76.76
19114;BME280;9689;51.052;13.772;2023-02-18T15:37:29;100038.56;;;10.01;74.93
19114;BME280;9689;51.052;13.772;2023-02-18T15:42:32;100044.03;;;10.29;72.46
19114;BME280;9689;51.052;13.772;2023-02-18T15:47:33;100043.34;;;10.58;69.92
19114;BME280;9689;51.052;13.772;2023-02-18T15:52:37;100022.25;;;10.69;69.45
19114;BME280;9689;51.052;13.772;2023-02-18T15:57:39;100032.44;;;10.76;68.17
19114;BME280;9689;51.052;13.772;2023-02-18T16:02:53;100020.16;;;10.82;68.32
19114;BME280;9689;51.052;13.772;2023-02-18T16:07:59;100027.00;;;10.87;67.45
19114;BME280;9689;51.052;13.772;2023-02-18T16:13:01;100032.91;;;10.92;67.37
19114;BME280;9689;51.052;13.772;2023-02-18T16:18:03;100045.16;;;10.90;68.36
19114;BME280;9689;51.052;13.772;2023-02-18T16:23:11;100069.50;;;10.89;67.69
19114;BME280;9689;51.052;13.772;2023-02-18T16:28:15;100063.41;;;10.90;68.17
19114;BME280;9689;51.052;13.772;2023-02-18T16:33:17;100064.34;;;10.88;68.86
19114;BME280;9689;51.052;13.772;2023-02-18T16:38:21;100048.66;;;10.89;68.69
19114;BME280;9689;51.052;13.772;2023-02-18T16:43:25;100059.13;;;10.88;68.69
19114;BME280;9689;51.052;13.772;2023-02-18T16:48:33;100054.81;;;10.87;68.67
19114;BME280;9689;51.052;13.772;2023-02-18T16:53:36;100073.81;;;10.90;68.39
19114;BME280;9689;51.052;13.772;2023-02-18T16:58:38;100084.22;;;10.92;67.63
19114;BME280;9689;51.052;13.772;2023-02-18T17:03:39;100089.28;;;10.98;66.93
19114;BME280;9689;51.052;13.772;2023-02-18T17:08:41;100082.25;;;11.00;66.85
19114;BME280;9689;51.052;13.772;2023-02-18T17:13:41;100098.84;;;10.97;67.89
19114;BME280;9689;51.052;13.772;2023-02-18T17:18:43;100107.72;;;10.90;68.67
19114;BME280;9689;51.052;13.772;2023-02-18T17:23:45;100127.94;;;10.81;69.45
19114;BME280;9689;51.052;13.772;2023-02-18T17:28:47;100107.41;;;10.67;70.38
19114;BME280;9689;51.052;13.772;2023-02-18T17:33:48;100112.19;;;10.48;72.16
19114;BME280;9689;51.052;13.772;2023-02-18T17:38:50;100141.69;;;10.48;71.52
19114;BME280;9689;51.052;13.772;2023-02-18T17:43:51;100142.22;;;10.26;74.41
19114;BME280;9689;51.052;13.772;2023-02-18T17:48:52;100161.63;;;10.09;74.72
19114;BME280;9689;51.052;13.772;2023-02-18T17:53:54;100158.72;;;10.25;72.74
19114;BME280;9689;51.052;13.772;2023-02-18T17:58:55;100165.81;;;10.15;74.41
19114;BME280;9689;51.052;13.772;2023-02-18T18:03:56;100177.06;;;10.18;73.80
19114;BME280;9689;51.052;13.772;2023-02-18T18:08:58;100184.81;;;10.20;74.24
19114;BME280;9689;51.052;13.772;2023-02-18T18:13:59;100205.72;;;10.15;73.70
19114;BME280;9689;51.052;13.772;2023-02-18T18:18:59;100190.84;;;10.25;72.88
19114;BME280;9689;51.052;13.772;2023-02-18T18:24:02;100192.06;;;10.49;70.83
19114;BME280;9689;51.052;13.772;2023-02-18T18:29:03;100201.38;;;10.59;69.54
19114;BME280;9689;51.052;13.772;2023-02-18T18:34:04;100213.41;;;10.66;68.84
19114;BME280;9689;51.052;13.772;2023-02-18T18:39:06;100232.53;;;10.65;69.88
19114;BME280;9689;51.052;13.772;2023-02-18T18:44:08;100238.91;;;10.51;71.84
19114;BME280;9689;51.052;13.772;2023-02-18T18:49:10;100240.31;;;10.25;73.99
19114;BME280;9689;51.052;13.772;2023-02-18T18:54:12;100244.25;;;10.00;76.36
19114;BME280;9689;51.052;13.772;2023-02-18T18:59:12;100236.81;;;9.78;77.82
19114;BME280;9689;51.052;13.772;2023-02-18T19:04:13;100235.81;;;9.85;76.16
19114;BME280;9689;51.052;13.772;2023-02-18T19:09:15;100227.59;;;10.07;74.19
19114;BME280;9689;51.052;13.772;2023-02-18T19:14:16;100230.03;;;10.16;74.09
19114;BME280;9689;51.052;13.772;2023-02-18T19:19:17;100235.97;;;10.24;73.09
19114;BME280;9689;51.052;13.772;2023-02-18T19:24:20;100228.78;;;10.37;72.49
19114;BME280;9689;51.052;13.772;2023-02-18T19:29:21;100256.47;;;10.41;71.94
19114;BME280;9689;51.052;13.772;2023-02-18T19:34:22;100245.06;;;10.48;70.92
19114;BME280;9689;51.052;13.772;2023-02-18T19:39:24;100249.44;;;10.46;71.44
19114;BME280;9689;51.052;13.772;2023-02-18T19:44:25;100240.94;;;10.38;72.53
19114;BME280;9689;51.052;13.772;2023-02-18T19:49:26;100270.53;;;10.34;72.13
19114;BME280;9689;51.052;13.772;2023-02-18T19:54:29;100246.44;;;10.21;72.79
19114;BME280;9689;51.052;13.772;2023-02-18T19:59:29;100265.66;;;10.14;73.71
19114;BME280;9689;51.052;13.772;2023-02-18T20:04:30;100259.56;;;10.15;73.07
19114;BME280;9689;51.052;13.772;2023-02-18T20:09:32;100280.53;;;10.07;74.15
19114;BME280;9689;51.052;13.772;2023-02-18T20:14:33;100265.84;;;10.05;74.02
19114;BME280;9689;51.052;13.772;2023-02-18T20:19:34;100285.91;;;9.98;75.03
19114;BME280;9689;51.052;13.772;2023-02-18T20:24:37;100275.56;;;9.95;74.94
19114;BME280;9689;51.052;13.772;2023-02-18T20:29:38;100278.22;;;9.92;75.66
19114;BME280;9689;51.052;13.772;2023-02-18T20:34:39;100271.22;;;9.96;75.09
19114;BME280;9689;51.052;13.772;2023-02-18T20:39:41;100275.53;;;9.97;74.70
19114;BME280;9689;51.052;13.772;2023-02-18T20:44:42;100290.13;;;10.05;74.60
19114;BME280;9689;51.052;13.772;2023-02-18T20:49:43;100290.97;;;10.06;74.48
19114;BME280;9689;51.052;13.772;2023-02-18T20:54:46;100287.59;;;10.02;74.67
19114;BME280;9689;51.052;13.772;2023-02-18T20:59:47;100289.22;;;10.08;74.59
19114;BME280;9689;51.052;13.772;2023-02-18T21:04:47;100291.97;;;9.99;74.35
19114;BME280;9689;51.052;13.772;2023-02-18T21:09:49;100274.78;;;9.91;74.82
19114;BME280;9689;51.052;13.772;2023-02-18T21:14:50;100278.19;;;9.94;74.29
19114;BME280;9689;51.052;13.772;2023-02-18T21:19:51;100290.31;;;9.95;74.29
19114;BME280;9689;51.052;13.772;2023-02-18T21:24:53;100283.28;;;10.01;73.36
19114;BME280;9689;51.052;13.772;2023-02-18T21:29:57;100283.22;;;10.03;74.26
19114;BME280;9689;51.052;13.772;2023-02-18T21:34:58;100280.59;;;10.04;74.50
19114;BME280;9689;51.052;13.772;2023-02-18T21:40:00;100286.75;;;9.99;74.63
19114;BME280;9689;51.052;13.772;2023-02-18T21:45:00;100296.34;;;9.97;75.96
19114;BME280;9689;51.052;13.772;2023-02-18T21:50:02;100292.16;;;9.88;76.50
19114;BME280;9689;51.052;13.772;2023-02-18T21:55:05;100283.53;;;9.86;76.83
19114;BME280;9689;51.052;13.772;2023-02-18T22:00:08;100303.59;;;9.79;77.52
19114;BME280;9689;51.052;13.772;2023-02-18T22:05:23;100295.16;;;9.63;78.40
19114;BME280;9689;51.052;13.772;2023-02-18T22:16:13;100287.28;;;9.70;77.37
19114;BME280;9689;51.052;13.772;2023-02-18T22:21:14;100293.22;;;9.78;77.13
19114;BME280;9689;51.052;13.772;2023-02-18T22:26:16;100289.59;;;9.86;75.81
19114;BME280;9689;51.052;13.772;2023-02-18T22:31:17;100293.97;;;9.84;75.46
19114;BME280;9689;51.052;13.772;2023-02-18T22:36:21;100289.44;;;9.96;74.33
19114;BME280;9689;51.052;13.772;2023-02-18T22:41:23;100304.88;;;10.05;73.05
19114;BME280;9689;51.052;13.772;2023-02-18T22:46:27;100290.22;;;10.01;74.18
19114;BME280;9689;51.052;13.772;2023-02-18T22:51:29;100299.94;;;9.89;75.71
19114;BME280;9689;51.052;13.772;2023-02-18T22:56:30;100302.31;;;9.52;78.36
19114;BME280;9689;51.052;13.772;2023-02-18T23:01:34;100302.50;;;9.40;79.70
19114;BME280;9689;51.052;13.772;2023-02-18T23:06:36;100292.34;;;9.23;80.95
19114;BME280;9689;51.052;13.772;2023-02-18T23:11:37;100295.09;;;9.14;81.54
19114;BME280;9689;51.052;13.772;2023-02-18T23:16:39;100287.28;;;9.14;81.31
19114;BME280;9689;51.052;13.772;2023-02-18T23:21:57;100297.72;;;9.13;81.24
19114;BME280;9689;51.052;13.772;2023-02-18T23:26:57;100290.75;;;9.15;81.29
19114;BME280;9689;51.052;13.772;2023-02-18T23:32:00;100293.38;;;9.13;80.67
19114;BME280;9689;51.052;13.772;2023-02-18T23:37:00;100287.94;;;9.30;78.86
19114;BME280;9689;51.052;13.772;2023-02-18T23:42:01;100284.44;;;9.29;78.26
19114;BME280;9689;51.052;13.772;2023-02-18T23:47:03;100287.59;;;9.50;76.87
19114;BME280;9689;51.052;13.772;2023-02-18T23:52:04;100284.16;;;9.49;76.99
19114;BME280;9689;51.052;13.772;2023-02-18T23:57:04;100274.59;;;9.50;76.95
